Time;durP1;ratioP1;P1;durP2;ratioP2;P2;SDS_P1;SDS_P2;PMS_P1;PMS_P2;Temp;Humidity;BMP_temperature;BMP_pressure;BME280_temperature;BME280_humidity;BME280_pressure;Samples;Min_cycle;Max_cycle;Signal;HPM_P1;HPM_P2
2023/10/24 00:01:50;;;;;;;0.03;0.03;;;13.40;99.90;;;;;;5067133;28;20179;-77
2023/10/24 00:04:15;;;;;;;0.10;0.10;;;13.10;99.90;;;;;;5070137;28;20195;-77
2023/10/24 00:06:41;;;;;;;0.10;0.10;;;13.10;99.90;;;;;;5069111;28;20224;-77
2023/10/24 00:09:06;;;;;;;0.10;0.10;;;13.10;99.90;;;;;;5068080;28;20244;-77
2023/10/24 00:11:33;;;;;;;0.10;0.10;;;13.10;99.90;;;;;;5063146;28;20199;-77
2023/10/24 00:13:59;;;;;;;0.10;0.10;;;12.90;99.90;;;;;;5085779;28;20213;-78
2023/10/24 00:16:24;;;;;;;0.10;0.10;;;12.90;99.90;;;;;;5059905;28;20221;-77
2023/10/24 00:18:50;;;;;;;0.10;0.10;;;12.90;99.90;;;;;;5068797;28;20228;-77
2023/10/24 00:21:16;;;;;;;0.10;0.10;;;12.80;99.90;;;;;;5069472;28;20215;-77
2023/10/24 00:23:56;;;;;;;0.00;0.00;;;12.90;99.90;;;;;;5046031;28;20209;-77
2023/10/24 00:26:22;;;;;;;0.00;0.00;;;13.00;99.90;;;;;;5069087;28;20199;-77
2023/10/24 00:28:47;;;;;;;0.10;0.10;;;13.10;99.90;;;;;;5068427;28;20260;-77
2023/10/24 00:31:13;;;;;;;0.10;0.10;;;13.20;99.90;;;;;;5067710;28;20192;-77
2023/10/24 00:33:38;;;;;;;0.10;0.10;;;13.30;99.90;;;;;;5069301;28;20194;-77
2023/10/24 00:36:04;;;;;;;0.10;0.10;;;13.20;99.90;;;;;;5066257;28;20182;-77
2023/10/24 00:38:29;;;;;;;0.10;0.10;;;13.20;99.90;;;;;;5064047;28;20275;-77
2023/10/24 00:40:55;;;;;;;0.10;0.10;;;13.20;99.90;;;;;;5067797;28;20663;-77
2023/10/24 00:43:20;;;;;;;0.10;0.10;;;13.30;99.90;;;;;;5064970;28;20210;-77
2023/10/24 00:45:46;;;;;;;0.10;0.10;;;13.10;99.90;;;;;;5066987;28;20522;-77
2023/10/24 00:48:12;;;;;;;0.10;0.10;;;13.00;99.90;;;;;;5067526;28;20222;-77
2023/10/24 00:50:38;;;;;;;0.10;0.10;;;13.10;99.90;;;;;;5068200;28;20222;-77
2023/10/24 00:53:04;;;;;;;0.07;0.07;;;13.00;99.90;;;;;;5062015;28;20293;-77
2023/10/24 00:55:31;;;;;;;0.10;0.10;;;13.10;99.90;;;;;;5062528;28;20191;-77
2023/10/24 00:57:58;;;;;;;0.10;0.10;;;13.20;99.90;;;;;;5067759;28;20236;-77
2023/10/24 01:00:26;;;;;;;0.10;0.10;;;13.30;99.90;;;;;;5058724;28;20191;-77
2023/10/24 01:02:52;;;;;;;0.10;0.10;;;13.40;99.90;;;;;;5067507;28;20247;-77
2023/10/24 01:05:17;;;;;;;0.10;0.10;;;13.40;99.90;;;;;;5069132;28;21032;-77
2023/10/24 01:07:45;;;;;;;0.10;0.10;;;13.40;99.90;;;;;;5061883;28;20187;-77
2023/10/24 01:10:11;;;;;;;0.10;0.10;;;13.40;99.90;;;;;;5061947;28;20224;-77
2023/10/24 01:12:37;;;;;;;0.10;0.10;;;13.40;99.90;;;;;;5067026;28;20664;-77
2023/10/24 01:15:04;;;;;;;0.10;0.10;;;13.40;99.90;;;;;;5066364;28;20186;-77
2023/10/24 01:17:29;;;;;;;0.03;0.03;;;13.40;99.90;;;;;;5059607;28;20212;-77
2023/10/24 01:19:55;;;;;;;0.10;0.10;;;13.50;99.90;;;;;;5067772;28;20214;-77
2023/10/24 01:22:20;;;;;;;0.10;0.10;;;13.50;99.90;;;;;;5059322;28;20273;-77
2023/10/24 01:24:47;;;;;;;0.10;0.10;;;13.50;99.90;;;;;;5067929;28;20187;-77
2023/10/24 01:27:14;;;;;;;0.10;0.10;;;13.50;99.90;;;;;;5066504;28;20708;-77
2023/10/24 01:29:40;;;;;;;0.10;0.10;;;13.60;99.90;;;;;;5067847;28;20640;-77
2023/10/24 01:32:05;;;;;;;0.10;0.10;;;13.60;99.90;;;;;;5061764;28;20222;-77
2023/10/24 01:34:31;;;;;;;0.10;0.10;;;13.60;99.90;;;;;;5067823;28;20592;-77
2023/10/24 01:36:56;;;;;;;0.10;0.10;;;13.50;99.90;;;;;;5065020;28;20236;-77
2023/10/24 01:39:22;;;;;;;0.10;0.10;;;13.00;99.90;;;;;;5067610;28;20249;-77
2023/10/24 01:41:48;;;;;;;0.10;0.10;;;12.80;99.90;;;;;;5066700;28;20216;-77
2023/10/24 01:44:13;;;;;;;0.10;0.10;;;13.00;99.90;;;;;;5068635;28;20195;-77
2023/10/24 01:46:39;;;;;;;0.10;0.10;;;13.10;99.90;;;;;;5068148;28;20830;-77
2023/10/24 01:49:06;;;;;;;0.10;0.10;;;13.10;99.90;;;;;;5067228;28;20241;-77
2023/10/24 01:51:31;;;;;;;0.10;0.10;;;12.80;99.90;;;;;;5064223;28;20195;-77
2023/10/24 01:53:57;;;;;;;0.10;0.10;;;12.70;99.90;;;;;;5069008;28;20177;-77
2023/10/24 01:56:22;;;;;;;0.10;0.10;;;12.70;99.90;;;;;;5064687;28;20181;-77
2023/10/24 01:58:48;;;;;;;0.10;0.10;;;12.60;99.90;;;;;;5062675;28;20594;-77
2023/10/24 02:01:14;;;;;;;0.10;0.10;;;12.60;99.90;;;;;;5067522;28;20192;-77
2023/10/24 02:03:39;;;;;;;0.10;0.10;;;12.60;99.90;;;;;;5068424;28;20709;-77
2023/10/24 02:06:05;;;;;;;0.10;0.10;;;12.70;99.90;;;;;;5068688;28;20599;-77
2023/10/24 02:08:30;;;;;;;0.10;0.10;;;12.70;99.90;;;;;;5067981;28;20213;-77
2023/10/24 02:10:56;;;;;;;0.10;0.10;;;12.80;99.90;;;;;;5068084;28;20684;-77
2023/10/24 02:13:21;;;;;;;0.10;0.10;;;12.80;99.90;;;;;;5068321;28;20189;-77
2023/10/24 02:15:47;;;;;;;0.10;0.10;;;12.80;99.90;;;;;;5068087;28;20248;-77
2023/10/24 02:18:12;;;;;;;0.10;0.10;;;12.90;99.90;;;;;;5067111;28;20718;-77
2023/10/24 02:20:38;;;;;;;0.10;0.10;;;13.00;99.90;;;;;;5066157;28;20743;-77
2023/10/24 02:23:04;;;;;;;0.10;0.10;;;13.10;99.90;;;;;;5061506;28;20185;-77
2023/10/24 02:25:29;;;;;;;0.10;0.10;;;13.20;99.90;;;;;;5067054;28;21067;-77
2023/10/24 02:27:55;;;;;;;0.10;0.10;;;13.30;99.90;;;;;;5067326;28;20635;-77
2023/10/24 02:30:21;;;;;;;0.10;0.10;;;13.10;99.90;;;;;;5063994;28;20179;-77
2023/10/24 02:32:47;;;;;;;0.10;0.10;;;12.80;99.90;;;;;;5067946;28;21253;-77
2023/10/24 02:35:14;;;;;;;0.10;0.10;;;12.90;99.90;;;;;;5064568;28;20609;-77
2023/10/24 02:37:39;;;;;;;0.10;0.10;;;12.80;99.90;;;;;;5059643;28;20200;-77
2023/10/24 02:40:07;;;;;;;0.10;0.10;;;12.70;99.90;;;;;;5070142;28;20247;-77
2023/10/24 02:42:33;;;;;;;0.10;0.10;;;12.60;99.90;;;;;;5068944;28;20213;-77
2023/10/24 02:44:59;;;;;;;0.10;0.10;;;12.60;99.90;;;;;;5071807;28;20268;-77
2023/10/24 02:47:25;;;;;;;0.10;0.10;;;12.70;99.90;;;;;;5063826;28;20256;-77
2023/10/24 02:49:50;;;;;;;0.10;0.10;;;12.60;99.90;;;;;;5070165;28;20624;-77
2023/10/24 02:52:16;;;;;;;0.00;0.00;;;12.60;99.90;;;;;;5069636;28;20276;-77
2023/10/24 02:54:42;;;;;;;0.10;0.10;;;12.60;99.90;;;;;;5070201;28;20243;-77
2023/10/24 02:57:07;;;;;;;0.10;0.10;;;12.60;99.90;;;;;;5070003;28;20192;-77
2023/10/24 02:59:33;;;;;;;0.10;0.10;;;12.80;99.90;;;;;;5066077;28;20213;-77
2023/10/24 03:01:58;;;;;;;0.10;0.10;;;12.90;99.90;;;;;;5071399;28;20596;-77
2023/10/24 03:04:24;;;;;;;0.10;0.10;;;12.70;99.90;;;;;;5062473;28;20186;-78
2023/10/24 03:06:49;;;;;;;0.07;0.07;;;12.60;99.90;;;;;;5066623;28;20592;-78
2023/10/24 03:09:15;;;;;;;0.00;0.00;;;12.60;99.90;;;;;;5066927;28;20214;-78
2023/10/24 03:11:40;;;;;;;0.03;0.03;;;12.60;99.90;;;;;;5063174;28;20195;-78
2023/10/24 03:14:06;;;;;;;0.07;0.07;;;12.70;99.90;;;;;;5061443;28;20238;-77
2023/10/24 03:16:33;;;;;;;0.10;0.10;;;12.80;99.90;;;;;;5070693;28;20194;-77
2023/10/24 03:18:59;;;;;;;0.00;0.00;;;12.70;99.90;;;;;;5069538;28;20295;-77
2023/10/24 03:21:25;;;;;;;0.10;0.10;;;12.70;99.90;;;;;;5068874;28;20283;-78
2023/10/24 03:23:51;;;;;;;0.10;0.10;;;12.70;99.90;;;;;;5063978;28;20195;-78
2023/10/24 03:26:18;;;;;;;0.10;0.10;;;12.80;99.90;;;;;;5064604;28;20183;-78
2023/10/24 03:28:45;;;;;;;0.10;0.10;;;12.90;99.90;;;;;;5069987;28;20258;-77
2023/10/24 03:31:10;;;;;;;0.10;0.10;;;12.80;99.90;;;;;;5065188;28;20182;-77
2023/10/24 03:33:36;;;;;;;0.07;0.07;;;12.70;99.90;;;;;;5060549;28;20190;-77
2023/10/24 03:36:01;;;;;;;0.10;0.10;;;12.70;99.90;;;;;;5065649;28;20191;-77
2023/10/24 03:38:27;;;;;;;0.10;0.10;;;12.90;99.90;;;;;;5064032;28;20213;-77
2023/10/24 03:40:54;;;;;;;0.10;0.10;;;13.00;99.90;;;;;;5060255;28;20187;-78
2023/10/24 03:43:20;;;;;;;0.10;0.10;;;13.10;99.90;;;;;;5068385;28;20178;-77
2023/10/24 03:45:45;;;;;;;0.10;0.10;;;12.90;99.90;;;;;;5067161;28;20224;-77
2023/10/24 03:48:12;;;;;;;0.10;0.10;;;12.90;99.90;;;;;;5065050;28;20219;-77
2023/10/24 03:50:38;;;;;;;0.10;0.10;;;12.90;99.90;;;;;;5061492;28;20303;-78
2023/10/24 03:53:04;;;;;;;0.10;0.10;;;12.80;99.90;;;;;;5069544;28;20235;-78
2023/10/24 03:55:31;;;;;;;0.10;0.10;;;12.80;99.90;;;;;;5069642;28;20229;-77
2023/10/24 03:57:59;;;;;;;0.10;0.10;;;12.70;99.90;;;;;;5060481;28;20198;-77
2023/10/24 04:00:25;;;;;;;0.10;0.10;;;12.70;99.90;;;;;;5069812;28;20236;-77
2023/10/24 04:02:51;;;;;;;0.10;0.10;;;12.80;99.90;;;;;;5070137;28;20272;-77
2023/10/24 04:05:17;;;;;;;0.10;0.10;;;12.80;99.90;;;;;;5064970;28;20186;-77
2023/10/24 04:07:42;;;;;;;0.03;0.03;;;12.80;99.90;;;;;;5067330;28;20193;-78
2023/10/24 04:10:08;;;;;;;8.57;7.83;;;12.60;99.90;;;;;;5063849;28;20799;-78
2023/10/24 04:12:34;;;;;;;0.10;0.10;;;12.70;99.90;;;;;;5066153;28;20204;-77
2023/10/24 04:14:59;;;;;;;0.00;0.00;;;12.50;99.90;;;;;;5066004;28;20192;-77
2023/10/24 04:17:25;;;;;;;0.10;0.10;;;12.50;99.90;;;;;;5060192;28;20212;-77
2023/10/24 04:19:50;;;;;;;0.10;0.10;;;12.40;99.90;;;;;;5061377;28;20229;-77
2023/10/24 04:22:16;;;;;;;0.10;0.10;;;12.40;99.90;;;;;;5066415;28;20258;-77
2023/10/24 04:24:41;;;;;;;0.03;0.03;;;12.30;99.90;;;;;;5063599;28;20215;-77
2023/10/24 04:27:10;;;;;;;0.00;0.00;;;12.20;99.90;;;;;;5068451;28;20637;-77
2023/10/24 04:29:35;;;;;;;0.10;0.10;;;12.30;99.90;;;;;;5067861;28;20214;-78
2023/10/24 04:32:01;;;;;;;0.10;0.10;;;12.50;99.90;;;;;;5060181;28;20189;-77
2023/10/24 04:34:26;;;;;;;0.10;0.10;;;12.50;99.90;;;;;;5062990;28;20260;-77
2023/10/24 04:36:53;;;;;;;0.10;0.10;;;12.50;99.90;;;;;;5060795;28;20195;-77
2023/10/24 04:39:19;;;;;;;0.10;0.10;;;12.30;99.90;;;;;;5066419;28;20225;-77
2023/10/24 04:41:47;;;;;;;0.10;0.10;;;12.40;99.90;;;;;;5067309;28;20195;-77
2023/10/24 04:44:13;;;;;;;0.00;0.00;;;12.30;99.90;;;;;;5067305;28;20273;-77
2023/10/24 04:46:40;;;;;;;0.10;0.10;;;12.20;99.90;;;;;;5061647;28;20277;-78
2023/10/24 04:49:05;;;;;;;0.10;0.10;;;12.10;99.90;;;;;;5066508;28;20607;-77
2023/10/24 04:51:31;;;;;;;0.10;0.10;;;12.00;99.90;;;;;;5066857;28;20273;-77
2023/10/24 04:53:57;;;;;;;0.10;0.10;;;12.00;99.90;;;;;;5058711;28;20221;-77
2023/10/24 04:56:22;;;;;;;0.10;0.10;;;11.90;99.90;;;;;;5067100;28;20200;-77
2023/10/24 04:58:49;;;;;;;0.10;0.10;;;11.90;99.90;;;;;;5067432;28;20241;-77
2023/10/24 05:01:14;;;;;;;0.10;0.10;;;11.90;99.90;;;;;;5061025;28;20615;-77
2023/10/24 05:03:40;;;;;;;0.10;0.10;;;11.90;99.90;;;;;;5067590;28;20185;-78
2023/10/24 05:06:06;;;;;;;0.10;0.10;;;11.90;99.90;;;;;;5067799;28;20177;-77
2023/10/24 05:08:31;;;;;;;0.00;0.00;;;11.90;99.90;;;;;;5064716;28;20236;-77
2023/10/24 05:10:57;;;;;;;0.10;0.10;;;11.90;99.90;;;;;;5068126;28;20581;-77
2023/10/24 05:13:22;;;;;;;0.10;0.10;;;11.90;99.90;;;;;;5063207;28;20196;-77
2023/10/24 05:15:48;;;;;;;0.10;0.10;;;11.90;99.90;;;;;;5062849;28;20200;-77
2023/10/24 05:18:14;;;;;;;0.00;0.00;;;12.00;99.90;;;;;;5067785;28;20284;-77
2023/10/24 05:20:39;;;;;;;0.10;0.10;;;11.90;99.90;;;;;;5067659;28;20181;-77
2023/10/24 05:23:06;;;;;;;0.10;0.10;;;11.90;99.90;;;;;;5068244;28;20217;-77
2023/10/24 05:25:31;;;;;;;0.10;0.10;;;11.90;99.90;;;;;;5068535;28;20248;-76
2023/10/24 05:27:57;;;;;;;0.10;0.10;;;11.90;99.90;;;;;;5065833;28;20187;-77
2023/10/24 05:30:23;;;;;;;0.10;0.10;;;11.80;99.90;;;;;;5061085;28;20263;-77
2023/10/24 05:32:48;;;;;;;0.10;0.10;;;11.80;99.90;;;;;;5059492;28;20185;-76
2023/10/24 05:35:14;;;;;;;0.10;0.10;;;11.80;99.90;;;;;;5068753;28;20196;-77
2023/10/24 05:37:40;;;;;;;0.10;0.10;;;11.80;99.90;;;;;;5068220;28;20192;-76
2023/10/24 05:40:07;;;;;;;0.10;0.10;;;11.80;99.90;;;;;;5067464;28;20237;-77
2023/10/24 05:42:32;;;;;;;0.10;0.10;;;11.90;99.90;;;;;;5067999;28;20240;-77
2023/10/24 05:44:58;;;;;;;0.10;0.10;;;11.80;99.90;;;;;;5064548;28;20229;-77
2023/10/24 05:47:23;;;;;;;0.10;0.10;;;11.80;99.90;;;;;;5067739;28;20238;-76
2023/10/24 05:49:50;;;;;;;0.10;0.10;;;11.80;99.90;;;;;;5059551;28;20200;-76
2023/10/24 05:52:16;;;;;;;0.10;0.10;;;11.80;99.90;;;;;;5068393;28;21154;-76
2023/10/24 05:54:41;;;;;;;0.10;0.10;;;11.80;99.90;;;;;;5066305;28;20197;-76
2023/10/24 05:57:07;;;;;;;0.10;0.10;;;11.90;99.90;;;;;;5066820;28;20197;-77
2023/10/24 05:59:33;;;;;;;0.10;0.10;;;11.90;99.90;;;;;;5067781;28;20213;-77
2023/10/24 06:01:59;;;;;;;0.10;0.10;;;12.10;99.90;;;;;;5064765;28;20581;-76
2023/10/24 06:04:25;;;;;;;0.03;0.03;;;12.20;99.90;;;;;;5064633;28;20181;-77
2023/10/24 06:06:50;;;;;;;0.10;0.10;;;12.20;99.90;;;;;;5059824;28;20234;-77
2023/10/24 06:09:16;;;;;;;0.10;0.10;;;12.20;99.90;;;;;;5065492;28;20636;-79
2023/10/24 06:11:41;;;;;;;0.10;0.10;;;12.10;99.90;;;;;;5062370;28;20212;-78
2023/10/24 06:14:08;;;;;;;0.10;0.10;;;12.00;99.90;;;;;;5068603;28;20675;-78
2023/10/24 06:16:34;;;;;;;0.10;0.10;;;11.90;99.90;;;;;;5086983;28;20188;-79
2023/10/24 06:18:59;;;;;;;0.10;0.10;;;11.90;99.90;;;;;;5069959;28;20328;-79
2023/10/24 06:21:26;;;;;;;0.10;0.10;;;11.90;99.90;;;;;;5067531;28;20185;-79
2023/10/24 06:23:53;;;;;;;0.10;0.10;;;12.00;99.90;;;;;;5068020;28;20714;-80
2023/10/24 06:26:19;;;;;;;0.10;0.10;;;12.00;99.90;;;;;;5072179;28;20668;-80
2023/10/24 06:28:45;;;;;;;0.10;0.10;;;11.90;99.90;;;;;;5074839;28;20229;-79
2023/10/24 06:31:14;;;;;;;0.10;0.10;;;12.00;99.90;;;;;;5067347;28;20215;-79
2023/10/24 06:33:40;;;;;;;0.10;0.10;;;12.10;99.90;;;;;;5063675;28;20272;-79
2023/10/24 06:36:06;;;;;;;0.10;0.10;;;12.00;99.90;;;;;;5070075;28;20560;-80
2023/10/24 06:38:32;;;;;;;0.00;0.00;;;11.90;99.90;;;;;;5063382;28;20215;-79
2023/10/24 06:40:58;;;;;;;0.10;0.10;;;11.90;99.90;;;;;;5062792;28;20185;-78
2023/10/24 06:43:25;;;;;;;0.10;0.10;;;11.90;99.90;;;;;;5068658;28;20539;-79
2023/10/24 06:45:50;;;;;;;0.10;0.10;;;11.90;99.90;;;;;;5064075;28;20184;-78
2023/10/24 06:48:16;;;;;;;0.10;0.10;;;11.90;99.90;;;;;;5063171;28;20213;-78
2023/10/24 06:50:41;;;;;;;0.10;0.10;;;11.80;99.90;;;;;;5066534;28;20189;-78
2023/10/24 06:53:08;;;;;;;0.10;0.10;;;11.80;99.90;;;;;;5062293;28;20186;-78
2023/10/24 06:55:35;;;;;;;0.10;0.10;;;11.80;99.90;;;;;;5066950;28;20185;-79
2023/10/24 06:58:01;;;;;;;0.10;0.10;;;11.80;99.90;;;;;;5065279;28;20177;-78
2023/10/24 07:00:28;;;;;;;0.10;0.10;;;11.80;99.90;;;;;;5068673;28;20183;-78
2023/10/24 07:02:53;;;;;;;0.10;0.10;;;11.80;99.90;;;;;;5066070;28;20177;-78
2023/10/24 07:05:19;;;;;;;0.10;0.10;;;11.80;99.90;;;;;;5066853;28;20177;-79
2023/10/24 07:07:45;;;;;;;0.10;0.10;;;11.80;99.90;;;;;;5065258;28;20267;-79
2023/10/24 07:10:10;;;;;;;0.20;0.20;;;11.80;99.90;;;;;;5062128;28;20285;-79
2023/10/24 07:12:36;;;;;;;0.10;0.10;;;11.80;99.90;;;;;;5070899;28;20176;-79
2023/10/24 07:15:05;;;;;;;0.10;0.10;;;11.80;99.90;;;;;;5061271;28;20189;-79
2023/10/24 07:17:32;;;;;;;0.10;0.10;;;11.80;99.90;;;;;;5063107;28;20185;-79
2023/10/24 07:20:01;;;;;;;0.10;0.10;;;11.90;99.90;;;;;;5063476;28;20224;-79
2023/10/24 07:22:27;;;;;;;0.10;0.10;;;11.90;99.90;;;;;;5068517;28;20181;-79
2023/10/24 07:24:53;;;;;;;0.10;0.10;;;11.90;99.90;;;;;;5062864;28;20523;-79
2023/10/24 07:27:19;;;;;;;0.07;0.07;;;12.10;99.90;;;;;;5070578;28;20231;-78
2023/10/24 07:29:45;;;;;;;0.10;0.10;;;12.10;99.90;;;;;;5063190;28;20651;-79
2023/10/24 07:32:11;;;;;;;0.00;0.00;;;12.20;99.90;;;;;;5062545;28;20205;-79
2023/10/24 07:34:39;;;;;;;0.10;0.10;;;12.20;99.90;;;;;;5069661;28;20238;-79
2023/10/24 07:37:05;;;;;;;0.10;0.10;;;12.30;99.90;;;;;;5065497;28;20189;-79
2023/10/24 07:39:31;;;;;;;0.10;0.10;;;12.50;99.90;;;;;;5060414;28;20213;-78
2023/10/24 07:41:57;;;;;;;0.10;0.10;;;12.50;99.90;;;;;;5065012;28;20212;-78
2023/10/24 07:44:22;;;;;;;0.07;0.07;;;12.40;99.90;;;;;;5061029;28;20210;-78
2023/10/24 07:46:48;;;;;;;0.10;0.10;;;12.30;99.90;;;;;;5068522;28;20724;-78
2023/10/24 07:49:13;;;;;;;0.00;0.00;;;12.40;99.90;;;;;;5067890;28;20216;-78
2023/10/24 07:51:39;;;;;;;0.00;0.00;;;12.40;99.90;;;;;;5063072;28;20192;-77
2023/10/24 07:54:05;;;;;;;0.10;0.10;;;12.50;99.90;;;;;;5061326;28;20192;-77
2023/10/24 07:56:30;;;;;;;0.10;0.10;;;12.50;99.90;;;;;;5058852;28;20572;-77
2023/10/24 07:58:56;;;;;;;0.10;0.10;;;12.60;99.90;;;;;;5069072;28;20292;-77
2023/10/24 08:01:22;;;;;;;0.10;0.10;;;12.60;99.90;;;;;;5062848;28;20174;-77
2023/10/24 08:03:47;;;;;;;0.10;0.10;;;12.50;99.90;;;;;;5058954;28;20177;-77
2023/10/24 08:06:13;;;;;;;0.10;0.10;;;12.40;99.90;;;;;;5066768;28;20186;-77
2023/10/24 08:08:43;;;;;;;0.10;0.10;;;12.40;99.90;;;;;;5065036;28;20227;-77
2023/10/24 08:11:09;;;;;;;0.10;0.10;;;12.60;99.90;;;;;;5085203;28;20224;-77
2023/10/24 08:13:35;;;;;;;0.00;0.00;;;12.60;99.90;;;;;;5063343;28;20604;-77
2023/10/24 08:16:00;;;;;;;0.10;0.10;;;12.60;99.90;;;;;;5070459;28;20185;-77
2023/10/24 08:18:26;;;;;;;0.10;0.10;;;12.60;99.90;;;;;;5069474;28;20205;-77
2023/10/24 08:20:53;;;;;;;0.03;0.03;;;12.60;99.90;;;;;;5062558;28;20182;-77
2023/10/24 08:23:19;;;;;;;0.10;0.10;;;12.60;99.90;;;;;;5061102;28;20193;-77
2023/10/24 08:25:45;;;;;;;0.10;0.10;;;12.80;99.90;;;;;;5058960;28;20235;-77
2023/10/24 08:28:10;;;;;;;0.10;0.10;;;13.00;99.90;;;;;;5069337;28;20292;-77
2023/10/24 08:30:36;;;;;;;0.10;0.10;;;13.00;99.90;;;;;;5069849;28;20174;-77
2023/10/24 08:33:01;;;;;;;0.10;0.10;;;13.10;99.90;;;;;;5064492;28;20663;-77
2023/10/24 08:35:27;;;;;;;0.00;0.00;;;13.10;99.90;;;;;;5058173;28;20698;-77
2023/10/24 08:37:53;;;;;;;0.10;0.10;;;13.10;99.90;;;;;;5066755;28;20186;-78
2023/10/24 08:40:20;;;;;;;0.10;0.10;;;13.10;99.90;;;;;;5059260;28;20360;-77
2023/10/24 08:42:45;;;;;;;0.10;0.10;;;13.20;99.90;;;;;;5067787;28;20175;-77
2023/10/24 08:45:16;;;;;;;0.00;0.00;;;13.30;99.90;;;;;;5066303;28;20198;-78
2023/10/24 08:47:43;;;;;;;0.10;0.10;;;13.40;99.90;;;;;;5068110;28;20170;-78
2023/10/24 08:50:09;;;;;;;0.10;0.10;;;13.50;99.90;;;;;;5068032;28;20255;-78
2023/10/24 08:52:35;;;;;;;0.10;0.10;;;13.60;99.90;;;;;;5060622;28;20188;-78
2023/10/24 08:55:03;;;;;;;0.10;0.10;;;13.50;99.90;;;;;;5066258;28;20190;-78
2023/10/24 08:57:32;;;;;;;0.10;0.10;;;13.60;99.90;;;;;;5067164;28;20181;-78
2023/10/24 08:59:58;;;;;;;0.10;0.10;;;13.60;99.90;;;;;;5063970;28;20210;-78
2023/10/24 09:02:25;;;;;;;0.10;0.10;;;13.70;99.90;;;;;;5066003;28;20192;-78
2023/10/24 09:04:51;;;;;;;0.10;0.10;;;13.80;99.90;;;;;;5067456;28;20174;-78
2023/10/24 09:07:16;;;;;;;0.10;0.10;;;13.80;99.90;;;;;;5062313;28;20200;-79
2023/10/24 09:09:42;;;;;;;0.10;0.10;;;13.90;99.90;;;;;;5065218;28;20203;-78
2023/10/24 09:12:14;;;;;;;0.10;0.10;;;13.90;99.90;;;;;;5067617;28;20231;-78
2023/10/24 09:14:40;;;;;;;0.10;0.10;;;13.90;99.90;;;;;;5065402;28;20270;-78
2023/10/24 09:17:05;;;;;;;0.10;0.10;;;13.90;99.90;;;;;;5068116;28;20206;-78
2023/10/24 09:19:32;;;;;;;0.10;0.10;;;13.90;99.90;;;;;;5068818;28;20204;-78
2023/10/24 09:21:58;;;;;;;0.10;0.10;;;13.90;99.90;;;;;;5066920;28;20180;-78
2023/10/24 09:24:23;;;;;;;0.10;0.10;;;14.00;99.90;;;;;;5067622;28;20232;-78
2023/10/24 09:26:51;;;;;;;0.10;0.10;;;14.00;99.90;;;;;;5061334;28;20289;-78
2023/10/24 09:29:18;;;;;;;0.10;0.10;;;14.00;99.90;;;;;;5060304;28;20208;-78
2023/10/24 09:31:46;;;;;;;0.10;0.10;;;14.10;99.90;;;;;;5066053;28;20187;-77
2023/10/24 09:34:12;;;;;;;0.10;0.10;;;14.10;99.90;;;;;;5067638;28;20183;-77
2023/10/24 09:36:37;;;;;;;0.10;0.10;;;14.20;99.90;;;;;;5064707;28;20190;-77
2023/10/24 09:39:03;;;;;;;0.10;0.10;;;14.00;99.90;;;;;;5060190;28;20204;-77
2023/10/24 09:41:30;;;;;;;0.10;0.10;;;13.90;99.90;;;;;;5067356;28;20266;-77
2023/10/24 09:44:01;;;;;;;0.10;0.10;;;13.90;99.90;;;;;;5061469;28;20187;-77
2023/10/24 09:46:28;;;;;;;0.10;0.10;;;14.00;99.90;;;;;;5066057;28;20187;-77
2023/10/24 09:48:55;;;;;;;0.10;0.10;;;14.10;99.90;;;;;;5066410;28;20211;-79
2023/10/24 09:51:22;;;;;;;0.10;0.10;;;14.20;99.90;;;;;;5065211;28;20554;-79
2023/10/24 09:53:49;;;;;;;0.10;0.10;;;14.20;99.90;;;;;;5064916;28;20294;-79
2023/10/24 09:56:16;;;;;;;0.10;0.10;;;14.30;99.90;;;;;;5066347;28;20240;-79
2023/10/24 09:58:43;;;;;;;0.10;0.10;;;14.30;99.90;;;;;;5073007;28;20295;-79
2023/10/24 10:01:09;;;;;;;0.10;0.10;;;14.30;99.90;;;;;;5067183;28;20187;-79
2023/10/24 10:03:36;;;;;;;0.10;0.10;;;14.30;99.90;;;;;;5069177;28;20187;-79
2023/10/24 10:06:16;;;;;;;0.10;0.10;;;14.30;99.90;;;;;;5067553;28;20207;-79
2023/10/24 10:08:42;;;;;;;0.10;0.10;;;14.30;99.90;;;;;;5072945;28;20299;-79
2023/10/24 10:11:08;;;;;;;0.10;0.10;;;14.40;99.90;;;;;;5072347;28;20270;-79
2023/10/24 10:13:46;;;;;;;0.10;0.10;;;14.30;99.90;;;;;;5073393;28;20211;-79
2023/10/24 10:16:33;;;;;;;0.10;0.10;;;14.30;99.90;;;;;;5072213;28;20271;-79
2023/10/24 10:19:21;;;;;;;0.10;0.10;;;14.40;99.90;;;;;;5070171;28;20210;-79
2023/10/24 10:22:13;;;;;;;0.00;0.00;;;14.40;99.90;;;;;;5087655;28;20176;-79
2023/10/24 10:25:10;;;;;;;0.10;0.10;;;14.40;99.90;;;;;;5069087;28;20180;-79
2023/10/24 10:27:44;;;;;;;0.10;0.10;;;14.40;99.90;;;;;;5067315;28;20242;-79
2023/10/24 10:30:23;;;;;;;0.10;0.10;;;14.40;99.90;;;;;;5071522;28;20253;-79
2023/10/24 10:32:56;;;;;;;0.10;0.10;;;14.50;99.90;;;;;;5067465;28;20602;-79
2023/10/24 10:35:41;;;;;;;0.10;0.10;;;14.60;99.90;;;;;;5069411;28;20688;-78
2023/10/24 10:38:07;;;;;;;0.10;0.10;;;14.60;99.90;;;;;;5069579;28;20195;-79
2023/10/24 10:40:33;;;;;;;0.10;0.10;;;14.60;99.90;;;;;;5061789;28;20188;-79
2023/10/24 10:42:59;;;;;;;0.10;0.10;;;14.60;99.90;;;;;;5068296;28;21251;-79
2023/10/24 10:45:32;;;;;;;0.10;0.10;;;14.70;99.90;;;;;;5065589;28;20681;-78
2023/10/24 10:48:06;;;;;;;0.10;0.10;;;14.70;99.90;;;;;;5069841;28;20181;-78
2023/10/24 10:50:33;;;;;;;0.10;0.10;;;14.70;99.90;;;;;;5063379;28;20233;-79
2023/10/24 10:53:18;;;;;;;0.10;0.10;;;14.80;99.90;;;;;;5070188;28;20208;-79
2023/10/24 10:55:52;;;;;;;0.10;0.10;;;14.80;99.90;;;;;;5068892;28;20195;-78
2023/10/24 10:58:29;;;;;;;0.10;0.10;;;14.70;99.90;;;;;;5070425;28;20257;-79
2023/10/24 11:01:00;;;;;;;0.10;0.10;;;14.80;99.90;;;;;;5068143;28;20226;-79
2023/10/24 11:03:57;;;;;;;0.10;0.10;;;14.90;99.90;;;;;;5067868;28;20241;-78
2023/10/24 11:06:26;;;;;;;0.10;0.10;;;14.90;99.90;;;;;;5057620;28;20196;-79
2023/10/24 11:09:12;;;;;;;0.10;0.10;;;14.90;99.90;;;;;;5071064;28;20253;-79
2023/10/24 11:11:38;;;;;;;0.10;0.10;;;15.00;99.90;;;;;;5064142;28;20226;-78
2023/10/24 11:14:19;;;;;;;0.10;0.10;;;15.00;99.90;;;;;;5063382;28;20184;-78
2023/10/24 11:16:48;;;;;;;0.10;0.10;;;15.10;99.90;;;;;;5064563;28;20188;-78
2023/10/24 11:19:24;;;;;;;0.10;0.10;;;15.00;99.90;;;;;;5063476;28;20247;-79
2023/10/24 11:21:51;;;;;;;0.10;0.10;;;15.00;99.90;;;;;;5076280;28;20169;-78
2023/10/24 11:24:20;;;;;;;0.10;0.10;;;14.90;99.90;;;;;;5074237;28;20181;-79
2023/10/24 11:26:54;;;;;;;0.10;0.10;;;14.60;99.90;;;;;;5073005;28;20178;-79
2023/10/24 11:29:20;;;;;;;0.10;0.10;;;14.10;99.90;;;;;;5072044;28;20292;-78
2023/10/24 11:31:46;;;;;;;0.10;0.10;;;14.30;99.90;;;;;;5071463;28;20220;-79
2023/10/24 11:34:15;;;;;;;0.10;0.10;;;14.40;99.90;;;;;;5065698;28;20185;-79
2023/10/24 11:36:42;;;;;;;0.10;0.10;;;14.40;99.90;;;;;;5088916;28;20197;-79
2023/10/24 11:39:08;;;;;;;0.10;0.10;;;14.50;99.90;;;;;;5069496;28;20216;-79
2023/10/24 11:41:35;;;;;;;0.10;0.10;;;14.40;99.90;;;;;;5085834;28;20304;-79
2023/10/24 11:44:01;;;;;;;0.10;0.10;;;14.40;99.90;;;;;;5066792;28;20272;-79
2023/10/24 11:46:27;;;;;;;0.10;0.10;;;14.50;99.90;;;;;;5067916;28;20216;-79
2023/10/24 11:48:52;;;;;;;0.10;0.10;;;14.60;99.90;;;;;;5074132;28;20240;-79
2023/10/24 11:51:18;;;;;;;0.10;0.10;;;14.60;99.90;;;;;;5070152;28;20203;-79
2023/10/24 11:53:44;;;;;;;0.10;0.10;;;14.70;99.90;;;;;;5066106;28;20231;-79
2023/10/24 11:56:10;;;;;;;0.10;0.10;;;14.60;99.90;;;;;;5063472;28;20193;-80
2023/10/24 11:58:35;;;;;;;0.10;0.10;;;14.60;99.90;;;;;;5071577;28;20701;-80
2023/10/24 12:01:02;;;;;;;0.10;0.10;;;14.60;99.90;;;;;;5071425;28;20283;-80
2023/10/24 12:03:47;;;;;;;0.10;0.10;;;14.50;99.90;;;;;;5069957;28;20280;-80
2023/10/24 12:06:15;;;;;;;0.10;0.10;;;14.40;99.90;;;;;;5070832;28;20271;-80
2023/10/24 12:08:43;;;;;;;0.10;0.10;;;14.30;99.90;;;;;;5070690;28;20204;-79
2023/10/24 12:11:09;;;;;;;0.10;0.10;;;14.30;99.90;;;;;;5070407;28;20427;-79
2023/10/24 12:13:35;;;;;;;0.07;0.07;;;14.30;99.90;;;;;;5064068;28;20561;-80
2023/10/24 12:16:01;;;;;;;0.10;0.10;;;14.20;99.90;;;;;;5068693;28;20183;-80
2023/10/24 12:18:30;;;;;;;0.10;0.10;;;14.20;99.90;;;;;;5068514;28;20216;-80
2023/10/24 12:20:56;;;;;;;0.10;0.10;;;14.30;99.90;;;;;;5057977;28;20221;-80
2023/10/24 12:23:23;;;;;;;0.10;0.10;;;14.30;99.90;;;;;;5066077;28;20326;-80
2023/10/24 12:25:49;;;;;;;0.10;0.10;;;14.30;99.90;;;;;;5070931;28;20180;-80
2023/10/24 12:28:15;;;;;;;0.10;0.10;;;14.40;99.90;;;;;;5063297;28;20278;-81
2023/10/24 12:30:40;;;;;;;0.07;0.07;;;14.50;99.90;;;;;;5063285;28;21232;-81
2023/10/24 12:33:06;;;;;;;0.10;0.10;;;14.60;99.90;;;;;;5061250;28;20184;-80
2023/10/24 12:35:31;;;;;;;0.10;0.10;;;14.60;99.90;;;;;;5062995;28;20188;-80
2023/10/24 12:37:58;;;;;;;0.10;0.10;;;14.60;99.90;;;;;;5062479;28;20526;-80
2023/10/24 12:40:24;;;;;;;0.10;0.10;;;14.60;99.90;;;;;;5071006;28;20352;-80
2023/10/24 12:42:50;;;;;;;0.10;0.10;;;14.60;99.90;;;;;;5064781;28;20678;-79
2023/10/24 12:45:15;;;;;;;0.10;0.10;;;14.60;99.90;;;;;;5065157;28;20530;-80
2023/10/24 12:47:41;;;;;;;0.10;0.10;;;14.60;99.90;;;;;;5070400;28;20206;-80